KHAI/HAI METAR and TAF weather

Enter ICAO airport designator
Station Type Date Time Source
KHAI METAR 2018/12/19 03:17 UTC NOAA

KHAI 190317Z AUTO 18004KT 10SM CLR M01/M04 A3008 RMK AO2 T10071038


Station Type Date Time Source
KHAI Decoded METAR 2018/12/19 03:17 UTC NOAA

Station name not available
Dec 18, 2018 - 10:17 PM EST / 2018.12.19 0317 UTC
Wind: from the S (180 degrees) at 5 MPH (4 KT):0
Visibility: 10 mile(s):0
Sky conditions: clear
Temperature: 30.7 F (-0.7 C)
Windchill: 24 F (-4 C):1
Dew Point: 25.2 F (-3.8 C)
Relative Humidity: 79%
Pressure (altimeter): 30.08 in. Hg (1018 hPa)
ob: KHAI 190317Z AUTO 18004KT 10SM CLR M01/M04 A3008 RMK AO2 T10071038
cycle: 3

Station Type Date Time Source
KHAI TAF UTC NOAA

Error!


Example: see airport list